Pinebluff, North Carolina
Current Conditions -  °F | °C
As of 8:56 AM on Saturday 25 Oct 2014 (Local Time) from KHFF Reporting Station
Clear Clear  
Wind Chill:   Ceiling: Unl
Heat Index:   Visibility: 10mi
Dew Point:   Wind: 2mph
Humidity: 98%   Direction: NA
Pressure: 30.04"   Gusts: NA
Location:  35.11°N, 79.47°W
Report Text: KHFF 251256Z AUTO VRB02KT 10SM CLR 08/08 A3004 RMK AO2 SLP175 T00790076
Loading
Personal Weather Stations






























Interactive Weather Map
Tropical Storm Tracking
New forecast layout! Learn more

10-Day Weather Forecast

Advertisements
Track Severe Weather on mobile